This is the latest recevied weather packets stored in our database for station/object N3WMC. If no packets are shown the sender has not sent any weather packets the latest 10 day(s).
| Time | Temp. | Humidity | Pressure | Rain* | Wind** | Luminosity | Snow |
|---|---|---|---|---|---|---|---|
| 1777887379 | 9.44° C | 62% | 1012.5 hPa | 0 mm | - | 0 W/m² | - |
| 1777887074 | 9.44° C | 63% | 1012.2 hPa | 0 mm | - | 0 W/m² | - |
| 1777886771 | 8.89° C | 63% | 1012.4 hPa | 0 mm | - | 0 W/m² | - |
| 1777886467 | 8.89° C | 65% | 1012.2 hPa | 0 mm | - | 0 W/m² | - |
| 1777886165 | 8.89° C | 68% | 1012.5 hPa | 0 mm | - | 0 W/m² | - |
| 1777885862 | 8.33° C | 72% | 1012.3 hPa | 0 mm | - | 0 W/m² | - |
| 1777885561 | 7.22° C | 77% | 1012.9 hPa | 0 mm | - | 0 W/m² | - |
| 1777885259 | 6.67° C | 80% | 1012.8 hPa | 0 mm | - | 0 W/m² | - |
| 1777884956 | 6.67° C | 81% | 1012.8 hPa | 0 mm | - | 0 W/m² | - |
| 1777884652 | 6.67° C | 82% | 1012.8 hPa | 0 mm | - | 0 W/m² | - |
| 1777884349 | 6.67° C | 82% | 1012.9 hPa | 0 mm | - | 0 W/m² | - |
| 1777884045 | 6.67° C | 82% | 1012.9 hPa | 0 mm | - | 0 W/m² | - |
| 1777883743 | 6.67° C | 82% | 1013 hPa | 0 mm | - | 0 W/m² | - |
| 1777883439 | 6.67° C | 85% | 1013 hPa | 0 mm | - | 0 W/m² | - |
| 1777883135 | 6.11° C | 87% | 1013 hPa | 0 mm | - | 0 W/m² | - |
| 1777882832 | 6.11° C | 87% | 1013.1 hPa | 0 mm | - | 0 W/m² | - |
| 1777882529 | 6.11° C | 87% | 1013.2 hPa | 0 mm | - | 0 W/m² | - |
| 1777882225 | 6.11° C | 88% | 1013.3 hPa | 0 mm | - | 0 W/m² | - |
| 1777881922 | 6.11° C | 88% | 1013.3 hPa | 0 mm | - | 0 W/m² | - |
| 1777881619 | 6.11° C | 88% | 1013.2 hPa | 0 mm | - | 0 W/m² | - |
| 1777881315 | 6.11° C | 88% | 1013.2 hPa | 0 mm | - | 0 W/m² | - |
| 1777881012 | 6.11° C | 88% | 1013.4 hPa | 0 mm | - | 0 W/m² | - |
| 1777880710 | 6.11° C | 88% | 1013.3 hPa | 0 mm | - | 0 W/m² | - |
| 1777880408 | 6.11° C | 88% | 1013.5 hPa | 0 mm | - | 0 W/m² | - |
| 1777880106 | 6.11° C | 88% | 1013.3 hPa | 0 mm | - | 0 W/m² | - |
* Rain latest hour (hover to see other rain measurements)
** Current wind speed in m/s (hover to see current wind gust speed)